Terminal Aerodrome Forecast
Issued by NWS

Home | Current Version | Previous Version | Text Only | Print | Product List | Glossary On
Versions: 1 2 3 4 5 6 7 8 9 10 11 12 13 14 15 16 17
000
FTUS46 KSTO 291100 RRA
TAFRDD
TAF
KRDD 291149Z 2912/3012 VRB02KT 6SM BR SKC
      TEMPO 2914/2916 2SM BR
     FM300300 34007KT P6SM SKC
     FM300900 36013KT P6SM SCT100 BKN200=

USA.gov is the U.S. government's official web portal to all federal, state and local government web resources and services.